sensor_id;sensor_type;location;lat;lon;timestamp;pressure;altitude;pressure_sealevel;temperature;humidity
68634;BME280;55625;47.072;22.192;2022-12-29T00:01:37;100637.22;;;-1.04;94.16
68634;BME280;55625;47.072;22.192;2022-12-29T00:04:04;100642.31;;;-1.06;94.14
68634;BME280;55625;47.072;22.192;2022-12-29T00:06:31;100645.47;;;-1.07;94.17
68634;BME280;55625;47.072;22.192;2022-12-29T00:08:56;100659.03;;;-1.06;94.02
68634;BME280;55625;47.072;22.192;2022-12-29T00:11:26;100643.13;;;-1.05;93.97
68634;BME280;55625;47.072;22.192;2022-12-29T00:13:53;100645.47;;;-1.07;93.68
68634;BME280;55625;47.072;22.192;2022-12-29T00:16:40;100656.16;;;-1.09;94.75
68634;BME280;55625;47.072;22.192;2022-12-29T00:19:06;100654.97;;;-1.08;94.30
68634;BME280;55625;47.072;22.192;2022-12-29T00:21:52;100658.56;;;-1.08;94.02
68634;BME280;55625;47.072;22.192;2022-12-29T00:24:36;100645.00;;;-1.09;94.29
68634;BME280;55625;47.072;22.192;2022-12-29T00:27:20;100647.34;;;-1.11;94.42
68634;BME280;55625;47.072;22.192;2022-12-29T00:30:25;100640.50;;;-1.14;94.54
68634;BME280;55625;47.072;22.192;2022-12-29T00:33:15;100637.25;;;-1.16;94.63
68634;BME280;55625;47.072;22.192;2022-12-29T00:36:18;100641.66;;;-1.15;94.37
68634;BME280;55625;47.072;22.192;2022-12-29T00:38:51;100630.06;;;-1.17;94.78
68634;BME280;55625;47.072;22.192;2022-12-29T00:41:35;100627.28;;;-1.17;94.15
68634;BME280;55625;47.072;22.192;2022-12-29T00:44:19;100628.09;;;-1.16;94.26
68634;BME280;55625;47.072;22.192;2022-12-29T00:46:45;100629.72;;;-1.15;94.21
68634;BME280;55625;47.072;22.192;2022-12-29T00:49:13;100632.34;;;-1.07;93.61
68634;BME280;55625;47.072;22.192;2022-12-29T00:52:11;100639.44;;;-1.09;93.89
68634;BME280;55625;47.072;22.192;2022-12-29T00:54:40;100641.41;;;-1.10;94.64
68634;BME280;55625;47.072;22.192;2022-12-29T00:57:08;100637.56;;;-1.05;94.43
68634;BME280;55625;47.072;22.192;2022-12-29T00:59:36;100638.13;;;-1.00;94.16
68634;BME280;55625;47.072;22.192;2022-12-29T01:02:02;100631.84;;;-0.97;93.67
68634;BME280;55625;47.072;22.192;2022-12-29T01:04:28;100630.31;;;-0.94;94.00
68634;BME280;55625;47.072;22.192;2022-12-29T01:06:54;100621.50;;;-0.96;93.33
68634;BME280;55625;47.072;22.192;2022-12-29T01:09:20;100616.84;;;-0.92;92.62
68634;BME280;55625;47.072;22.192;2022-12-29T01:12:07;100617.69;;;-0.91;92.62
68634;BME280;55625;47.072;22.192;2022-12-29T01:14:33;100613.38;;;-0.89;92.37
68634;BME280;55625;47.072;22.192;2022-12-29T01:16:59;100613.72;;;-0.90;92.27
68634;BME280;55625;47.072;22.192;2022-12-29T01:19:25;100610.59;;;-0.89;92.10
68634;BME280;55625;47.072;22.192;2022-12-29T01:21:52;100605.13;;;-0.85;91.48
68634;BME280;55625;47.072;22.192;2022-12-29T01:24:19;100598.63;;;-0.89;91.92
68634;BME280;55625;47.072;22.192;2022-12-29T01:26:46;100599.09;;;-0.87;91.04
68634;BME280;55625;47.072;22.192;2022-12-29T01:29:12;100593.16;;;-0.86;90.76
68634;BME280;55625;47.072;22.192;2022-12-29T01:31:38;100594.41;;;-0.83;90.99
68634;BME280;55625;47.072;22.192;2022-12-29T01:34:05;100594.31;;;-0.87;91.44
68634;BME280;55625;47.072;22.192;2022-12-29T01:36:31;100593.50;;;-0.87;92.34
68634;BME280;55625;47.072;22.192;2022-12-29T01:38:57;100585.88;;;-0.90;92.21
68634;BME280;55625;47.072;22.192;2022-12-29T01:41:23;100590.00;;;-0.84;92.38
68634;BME280;55625;47.072;22.192;2022-12-29T01:43:56;100576.81;;;-0.72;91.64
68634;BME280;55625;47.072;22.192;2022-12-29T01:46:41;100581.84;;;-0.77;92.09
68634;BME280;55625;47.072;22.192;2022-12-29T01:49:19;100581.03;;;-0.78;92.15
68634;BME280;55625;47.072;22.192;2022-12-29T01:51:51;100570.88;;;-0.70;91.51
68634;BME280;55625;47.072;22.192;2022-12-29T01:57:01;100571.25;;;-0.72;91.33
68634;BME280;55625;47.072;22.192;2022-12-29T01:59:34;100562.53;;;-0.70;90.35
68634;BME280;55625;47.072;22.192;2022-12-29T02:02:02;100564.16;;;-0.69;90.50
68634;BME280;55625;47.072;22.192;2022-12-29T02:04:31;100560.09;;;-0.72;89.89
68634;BME280;55625;47.072;22.192;2022-12-29T02:07:02;100569.53;;;-0.76;90.52
68634;BME280;55625;47.072;22.192;2022-12-29T02:09:30;100573.84;;;-0.79;90.74
68634;BME280;55625;47.072;22.192;2022-12-29T02:11:57;100553.09;;;-0.81;90.60
68634;BME280;55625;47.072;22.192;2022-12-29T02:14:23;100556.78;;;-0.77;90.75
68634;BME280;55625;47.072;22.192;2022-12-29T02:20:24;100557.66;;;-0.73;91.58
68634;BME280;55625;47.072;22.192;2022-12-29T02:23:35;100569.00;;;-0.66;90.66
68634;BME280;55625;47.072;22.192;2022-12-29T02:29:21;100561.31;;;-0.57;89.40
68634;BME280;55625;47.072;22.192;2022-12-29T02:35:29;100551.78;;;-0.56;88.52
68634;BME280;55625;47.072;22.192;2022-12-29T02:37:44;100558.97;;;-0.55;88.19
68634;BME280;55625;47.072;22.192;2022-12-29T02:46:03;100561.75;;;-0.55;87.00
68634;BME280;55625;47.072;22.192;2022-12-29T02:51:25;100565.00;;;-0.53;86.72
68634;BME280;55625;47.072;22.192;2022-12-29T02:53:55;100570.13;;;-0.55;86.64
68634;BME280;55625;47.072;22.192;2022-12-29T02:56:53;100574.97;;;-0.52;85.96
68634;BME280;55625;47.072;22.192;2022-12-29T02:59:19;100560.75;;;-0.47;85.28
68634;BME280;55625;47.072;22.192;2022-12-29T03:06:03;100564.72;;;-0.48;84.95
68634;BME280;55625;47.072;22.192;2022-12-29T03:09:01;100577.50;;;-0.47;84.81
68634;BME280;55625;47.072;22.192;2022-12-29T03:11:41;100562.47;;;-0.42;85.02
68634;BME280;55625;47.072;22.192;2022-12-29T03:14:52;100573.53;;;-0.46;85.07
68634;BME280;55625;47.072;22.192;2022-12-29T03:18:04;100572.28;;;-0.48;84.97
68634;BME280;55625;47.072;22.192;2022-12-29T03:21:02;100573.00;;;-0.51;85.29
68634;BME280;55625;47.072;22.192;2022-12-29T03:23:30;100564.91;;;-0.56;85.70
68634;BME280;55625;47.072;22.192;2022-12-29T03:26:01;100567.69;;;-0.56;85.44
68634;BME280;55625;47.072;22.192;2022-12-29T03:28:39;100570.84;;;-0.58;85.72
68634;BME280;55625;47.072;22.192;2022-12-29T03:31:08;100567.59;;;-0.60;86.33
68634;BME280;55625;47.072;22.192;2022-12-29T03:33:38;100558.88;;;-0.58;85.69
68634;BME280;55625;47.072;22.192;2022-12-29T03:36:09;100560.41;;;-0.61;86.07
68634;BME280;55625;47.072;22.192;2022-12-29T03:39:03;100556.69;;;-0.65;85.93
68634;BME280;55625;47.072;22.192;2022-12-29T03:41:34;100556.25;;;-0.67;86.07
68634;BME280;55625;47.072;22.192;2022-12-29T03:44:00;100556.50;;;-0.72;86.38
68634;BME280;55625;47.072;22.192;2022-12-29T03:46:25;100552.91;;;-0.73;85.78
68634;BME280;55625;47.072;22.192;2022-12-29T03:48:51;100555.69;;;-0.73;85.97
68634;BME280;55625;47.072;22.192;2022-12-29T03:51:17;100546.34;;;-0.80;86.44
68634;BME280;55625;47.072;22.192;2022-12-29T03:53:43;100544.53;;;-0.88;87.38
68634;BME280;55625;47.072;22.192;2022-12-29T03:56:09;100552.31;;;-0.94;87.59
68634;BME280;55625;47.072;22.192;2022-12-29T03:58:35;100552.78;;;-0.92;87.64
68634;BME280;55625;47.072;22.192;2022-12-29T04:01:00;100549.06;;;-0.96;87.42
68634;BME280;55625;47.072;22.192;2022-12-29T04:03:26;100556.88;;;-1.02;87.91
68634;BME280;55625;47.072;22.192;2022-12-29T04:05:52;100560.84;;;-1.03;88.16
68634;BME280;55625;47.072;22.192;2022-12-29T04:08:18;100557.50;;;-1.08;88.14
68634;BME280;55625;47.072;22.192;2022-12-29T04:10:43;100552.75;;;-1.08;87.93
68634;BME280;55625;47.072;22.192;2022-12-29T04:13:09;100550.66;;;-1.11;87.96
68634;BME280;55625;47.072;22.192;2022-12-29T04:15:35;100554.88;;;-1.17;88.56
68634;BME280;55625;47.072;22.192;2022-12-29T04:18:01;100556.03;;;-1.18;88.41
68634;BME280;55625;47.072;22.192;2022-12-29T04:20:27;100560.81;;;-1.18;88.52
68634;BME280;55625;47.072;22.192;2022-12-29T04:23:12;100561.25;;;-1.16;88.45
68634;BME280;55625;47.072;22.192;2022-12-29T04:25:37;100571.59;;;-1.17;88.32
68634;BME280;55625;47.072;22.192;2022-12-29T04:28:03;100556.50;;;-1.16;88.49
68634;BME280;55625;47.072;22.192;2022-12-29T04:30:29;100556.50;;;-1.16;88.33
68634;BME280;55625;47.072;22.192;2022-12-29T04:32:56;100556.75;;;-1.21;88.77
68634;BME280;55625;47.072;22.192;2022-12-29T04:35:21;100549.06;;;-1.24;88.34
68634;BME280;55625;47.072;22.192;2022-12-29T04:37:47;100544.22;;;-1.27;88.74
68634;BME280;55625;47.072;22.192;2022-12-29T04:40:13;100550.25;;;-1.25;88.48
68634;BME280;55625;47.072;22.192;2022-12-29T04:42:39;100544.94;;;-1.30;88.74
68634;BME280;55625;47.072;22.192;2022-12-29T04:45:05;100551.66;;;-1.31;88.57
68634;BME280;55625;47.072;22.192;2022-12-29T04:47:31;100550.50;;;-1.30;88.14
68634;BME280;55625;47.072;22.192;2022-12-29T04:49:57;100547.59;;;-1.21;87.75
68634;BME280;55625;47.072;22.192;2022-12-29T04:52:23;100553.03;;;-1.25;87.10
68634;BME280;55625;47.072;22.192;2022-12-29T04:54:49;100551.50;;;-1.22;87.23
68634;BME280;55625;47.072;22.192;2022-12-29T04:57:15;100555.69;;;-1.16;86.12
68634;BME280;55625;47.072;22.192;2022-12-29T04:59:40;100552.28;;;-1.10;85.70
68634;BME280;55625;47.072;22.192;2022-12-29T05:02:06;100551.94;;;-1.08;84.57
68634;BME280;55625;47.072;22.192;2022-12-29T05:04:32;100552.84;;;-1.04;84.50
68634;BME280;55625;47.072;22.192;2022-12-29T05:06:58;100552.47;;;-1.03;84.32
68634;BME280;55625;47.072;22.192;2022-12-29T05:09:23;100558.16;;;-0.99;84.47
68634;BME280;55625;47.072;22.192;2022-12-29T05:11:49;100550.06;;;-1.04;84.60
68634;BME280;55625;47.072;22.192;2022-12-29T05:14:15;100558.75;;;-1.06;84.51
68634;BME280;55625;47.072;22.192;2022-12-29T05:16:41;100557.25;;;-1.03;85.02
68634;BME280;55625;47.072;22.192;2022-12-29T05:19:07;100552.03;;;-1.05;84.78
68634;BME280;55625;47.072;22.192;2022-12-29T05:21:33;100560.22;;;-0.96;85.12
68634;BME280;55625;47.072;22.192;2022-12-29T05:23:58;100553.03;;;-0.97;85.20
68634;BME280;55625;47.072;22.192;2022-12-29T05:26:24;100555.56;;;-0.92;85.44
68634;BME280;55625;47.072;22.192;2022-12-29T05:28:50;100547.69;;;-0.90;85.89
68634;BME280;55625;47.072;22.192;2022-12-29T05:31:16;100555.31;;;-0.87;85.75
68634;BME280;55625;47.072;22.192;2022-12-29T05:33:42;100545.88;;;-0.82;85.39
68634;BME280;55625;47.072;22.192;2022-12-29T05:36:09;100539.69;;;-0.76;85.16
68634;BME280;55625;47.072;22.192;2022-12-29T05:38:35;100537.72;;;-0.75;85.19
68634;BME280;55625;47.072;22.192;2022-12-29T05:41:01;100537.19;;;-0.65;84.67
68634;BME280;55625;47.072;22.192;2022-12-29T05:43:27;100532.31;;;-0.68;85.05
68634;BME280;55625;47.072;22.192;2022-12-29T05:45:53;100528.38;;;-0.67;84.80
68634;BME280;55625;47.072;22.192;2022-12-29T05:48:19;100526.47;;;-0.63;84.00
68634;BME280;55625;47.072;22.192;2022-12-29T05:50:49;100530.00;;;-0.66;83.47
68634;BME280;55625;47.072;22.192;2022-12-29T05:53:16;100527.91;;;-0.69;83.70
68634;BME280;55625;47.072;22.192;2022-12-29T05:55:44;100538.34;;;-0.66;83.55
68634;BME280;55625;47.072;22.192;2022-12-29T05:58:10;100538.72;;;-0.68;83.46
68634;BME280;55625;47.072;22.192;2022-12-29T06:00:36;100544.19;;;-0.71;83.48
68634;BME280;55625;47.072;22.192;2022-12-29T06:03:01;100546.00;;;-0.63;83.40
68634;BME280;55625;47.072;22.192;2022-12-29T06:05:27;100534.41;;;-0.65;83.10
68634;BME280;55625;47.072;22.192;2022-12-29T06:07:53;100534.31;;;-0.69;83.86
68634;BME280;55625;47.072;22.192;2022-12-29T06:10:19;100535.66;;;-0.63;82.77
68634;BME280;55625;47.072;22.192;2022-12-29T06:12:45;100543.41;;;-0.56;82.86
68634;BME280;55625;47.072;22.192;2022-12-29T06:15:11;100542.41;;;-0.64;83.45
68634;BME280;55625;47.072;22.192;2022-12-29T06:17:37;100542.31;;;-0.67;83.69
68634;BME280;55625;47.072;22.192;2022-12-29T06:20:03;100540.69;;;-0.68;84.28
68634;BME280;55625;47.072;22.192;2022-12-29T06:22:29;100549.75;;;-0.71;84.23
68634;BME280;55625;47.072;22.192;2022-12-29T06:24:55;100546.13;;;-0.59;83.92
68634;BME280;55625;47.072;22.192;2022-12-29T06:27:21;100543.19;;;-0.63;83.70
68634;BME280;55625;47.072;22.192;2022-12-29T06:29:47;100553.19;;;-0.62;83.20
68634;BME280;55625;47.072;22.192;2022-12-29T06:32:13;100557.63;;;-0.61;83.28
68634;BME280;55625;47.072;22.192;2022-12-29T06:34:38;100556.53;;;-0.56;82.80
68634;BME280;55625;47.072;22.192;2022-12-29T06:37:04;100553.41;;;-0.55;83.14
68634;BME280;55625;47.072;22.192;2022-12-29T06:39:30;100555.47;;;-0.52;82.98
68634;BME280;55625;47.072;22.192;2022-12-29T06:41:56;100551.59;;;-0.47;82.59
68634;BME280;55625;47.072;22.192;2022-12-29T06:44:22;100553.31;;;-0.43;82.15
68634;BME280;55625;47.072;22.192;2022-12-29T06:46:49;100554.28;;;-0.35;82.03
68634;BME280;55625;47.072;22.192;2022-12-29T06:49:16;100548.25;;;-0.37;82.80
68634;BME280;55625;47.072;22.192;2022-12-29T06:51:42;100556.97;;;-0.39;83.12
68634;BME280;55625;47.072;22.192;2022-12-29T06:54:08;100567.50;;;-0.32;82.85
68634;BME280;55625;47.072;22.192;2022-12-29T06:56:34;100563.56;;;-0.31;81.94
68634;BME280;55625;47.072;22.192;2022-12-29T06:58:59;100571.81;;;-0.35;82.10
68634;BME280;55625;47.072;22.192;2022-12-29T07:01:26;100561.94;;;-0.32;82.26
68634;BME280;55625;47.072;22.192;2022-12-29T07:03:52;100568.69;;;-0.33;82.38
68634;BME280;55625;47.072;22.192;2022-12-29T07:06:18;100563.22;;;-0.29;81.93
68634;BME280;55625;47.072;22.192;2022-12-29T07:08:44;100563.66;;;-0.27;81.51
68634;BME280;55625;47.072;22.192;2022-12-29T07:11:10;100543.34;;;-0.28;82.09
68634;BME280;55625;47.072;22.192;2022-12-29T07:13:36;100568.44;;;-0.28;81.96
68634;BME280;55625;47.072;22.192;2022-12-29T07:16:09;100563.66;;;-0.27;81.52
68634;BME280;55625;47.072;22.192;2022-12-29T07:18:36;100567.19;;;-0.30;81.73
68634;BME280;55625;47.072;22.192;2022-12-29T07:21:02;100553.78;;;-0.25;81.03
68634;BME280;55625;47.072;22.192;2022-12-29T07:23:29;100563.66;;;-0.27;81.50
68634;BME280;55625;47.072;22.192;2022-12-29T07:26:07;100558.97;;;-0.23;82.19
68634;BME280;55625;47.072;22.192;2022-12-29T07:28:35;100566.72;;;-0.17;81.81
68634;BME280;55625;47.072;22.192;2022-12-29T07:31:01;100556.53;;;-0.09;81.69
68634;BME280;55625;47.072;22.192;2022-12-29T07:33:31;100559.50;;;-0.02;81.80
68634;BME280;55625;47.072;22.192;2022-12-29T07:35:58;100554.09;;;0.05;82.34
68634;BME280;55625;47.072;22.192;2022-12-29T07:38:24;100552.66;;;0.11;82.79
68634;BME280;55625;47.072;22.192;2022-12-29T07:40:50;100551.34;;;0.24;81.51
68634;BME280;55625;47.072;22.192;2022-12-29T07:43:16;100548.28;;;0.29;81.91
68634;BME280;55625;47.072;22.192;2022-12-29T07:45:42;100545.28;;;0.38;82.46
68634;BME280;55625;47.072;22.192;2022-12-29T07:48:08;100554.28;;;0.47;82.31
68634;BME280;55625;47.072;22.192;2022-12-29T07:50:35;100552.13;;;0.60;81.17
68634;BME280;55625;47.072;22.192;2022-12-29T07:53:01;100547.53;;;0.68;81.11
68634;BME280;55625;47.072;22.192;2022-12-29T07:55:27;100548.13;;;0.77;80.15
68634;BME280;55625;47.072;22.192;2022-12-29T07:57:54;100553.91;;;0.87;78.74
68634;BME280;55625;47.072;22.192;2022-12-29T08:00:20;100559.31;;;0.96;78.77
68634;BME280;55625;47.072;22.192;2022-12-29T08:02:46;100557.03;;;1.02;78.27
68634;BME280;55625;47.072;22.192;2022-12-29T08:05:12;100561.94;;;1.08;78.34
68634;BME280;55625;47.072;22.192;2022-12-29T08:07:38;100562.00;;;1.12;78.40
68634;BME280;55625;47.072;22.192;2022-12-29T08:10:05;100550.53;;;1.17;77.96
68634;BME280;55625;47.072;22.192;2022-12-29T08:12:31;100564.66;;;1.24;76.96
68634;BME280;55625;47.072;22.192;2022-12-29T08:14:56;100566.72;;;1.27;76.80
68634;BME280;55625;47.072;22.192;2022-12-29T08:17:22;100565.22;;;1.33;76.25
68634;BME280;55625;47.072;22.192;2022-12-29T08:19:48;100563.75;;;1.39;76.45
68634;BME280;55625;47.072;22.192;2022-12-29T08:22:14;100562.63;;;1.44;75.94
68634;BME280;55625;47.072;22.192;2022-12-29T08:24:40;100565.09;;;1.49;76.63
68634;BME280;55625;47.072;22.192;2022-12-29T08:27:06;100572.09;;;1.59;76.79
68634;BME280;55625;47.072;22.192;2022-12-29T08:29:32;100572.78;;;1.75;76.36
68634;BME280;55625;47.072;22.192;2022-12-29T08:31:58;100582.66;;;1.92;75.31
68634;BME280;55625;47.072;22.192;2022-12-29T08:34:24;100581.28;;;2.05;74.30
68634;BME280;55625;47.072;22.192;2022-12-29T08:36:49;100582.28;;;2.16;74.10
68634;BME280;55625;47.072;22.192;2022-12-29T08:39:16;100575.31;;;2.33;73.68
68634;BME280;55625;47.072;22.192;2022-12-29T08:41:41;100560.78;;;2.50;72.56
68634;BME280;55625;47.072;22.192;2022-12-29T08:44:08;100548.63;;;2.69;73.03
68634;BME280;55625;47.072;22.192;2022-12-29T08:46:33;100560.50;;;2.89;71.78
68634;BME280;55625;47.072;22.192;2022-12-29T08:48:59;100559.84;;;3.02;70.96
68634;BME280;55625;47.072;22.192;2022-12-29T08:51:25;100560.00;;;3.13;70.60
68634;BME280;55625;47.072;22.192;2022-12-29T08:53:51;100559.72;;;3.25;70.81
68634;BME280;55625;47.072;22.192;2022-12-29T08:56:17;100559.91;;;3.39;69.86
68634;BME280;55625;47.072;22.192;2022-12-29T08:58:43;100547.63;;;3.55;67.82
68634;BME280;55625;47.072;22.192;2022-12-29T09:01:09;100545.81;;;3.73;66.46
68634;BME280;55625;47.072;22.192;2022-12-29T09:03:35;100539.50;;;3.87;66.37
68634;BME280;55625;47.072;22.192;2022-12-29T09:06:01;100534.81;;;4.01;67.87
68634;BME280;55625;47.072;22.192;2022-12-29T09:08:27;100537.69;;;4.12;67.78
68634;BME280;55625;47.072;22.192;2022-12-29T09:10:53;100538.13;;;4.18;67.65
68634;BME280;55625;47.072;22.192;2022-12-29T09:13:19;100522.88;;;4.19;66.41
68634;BME280;55625;47.072;22.192;2022-12-29T09:15:45;100538.50;;;4.13;66.19
68634;BME280;55625;47.072;22.192;2022-12-29T09:18:12;100543.72;;;4.14;65.93
68634;BME280;55625;47.072;22.192;2022-12-29T09:20:38;100555.09;;;4.32;65.91
68634;BME280;55625;47.072;22.192;2022-12-29T09:23:04;100544.34;;;4.48;65.03
68634;BME280;55625;47.072;22.192;2022-12-29T09:25:31;100534.47;;;4.72;64.17
68634;BME280;55625;47.072;22.192;2022-12-29T09:27:57;100528.53;;;4.95;63.95
68634;BME280;55625;47.072;22.192;2022-12-29T09:30:24;100526.19;;;5.11;63.46
68634;BME280;55625;47.072;22.192;2022-12-29T09:32:50;100529.47;;;5.27;63.25
68634;BME280;55625;47.072;22.192;2022-12-29T09:35:16;100525.88;;;5.41;61.95
68634;BME280;55625;47.072;22.192;2022-12-29T09:37:43;100517.06;;;5.57;62.41
68634;BME280;55625;47.072;22.192;2022-12-29T09:40:38;100510.63;;;5.78;62.41
68634;BME280;55625;47.072;22.192;2022-12-29T09:48:30;100495.72;;;6.27;59.62
68634;BME280;55625;47.072;22.192;2022-12-29T09:51:02;100486.03;;;6.42;60.53
68634;BME280;55625;47.072;22.192;2022-12-29T09:53:57;100482.75;;;6.58;60.41
68634;BME280;55625;47.072;22.192;2022-12-29T09:56:25;100476.22;;;6.82;60.10
68634;BME280;55625;47.072;22.192;2022-12-29T09:58:59;100473.28;;;7.07;59.16
68634;BME280;55625;47.072;22.192;2022-12-29T10:03:59;100461.28;;;7.55;58.68
68634;BME280;55625;47.072;22.192;2022-12-29T10:06:48;100455.84;;;7.78;57.96
68634;BME280;55625;47.072;22.192;2022-12-29T10:12:28;100447.31;;;8.27;57.11
68634;BME280;55625;47.072;22.192;2022-12-29T10:21:44;100431.63;;;8.90;56.51
68634;BME280;55625;47.072;22.192;2022-12-29T10:24:15;100430.09;;;9.13;56.65
68634;BME280;55625;47.072;22.192;2022-12-29T10:26:43;100430.09;;;9.40;57.42
68634;BME280;55625;47.072;22.192;2022-12-29T10:29:20;100430.44;;;9.69;58.65
68634;BME280;55625;47.072;22.192;2022-12-29T10:31:58;100433.59;;;9.98;57.32
68634;BME280;55625;47.072;22.192;2022-12-29T10:34:29;100429.94;;;9.97;56.88
68634;BME280;55625;47.072;22.192;2022-12-29T10:39:55;100430.88;;;9.90;56.32
68634;BME280;55625;47.072;22.192;2022-12-29T10:42:38;100433.44;;;10.05;56.41
68634;BME280;55625;47.072;22.192;2022-12-29T10:45:15;100429.44;;;10.02;55.70
68634;BME280;55625;47.072;22.192;2022-12-29T10:48:12;100432.28;;;10.25;57.63
68634;BME280;55625;47.072;22.192;2022-12-29T10:50:41;100421.88;;;10.39;56.14
68634;BME280;55625;47.072;22.192;2022-12-29T10:53:18;100414.19;;;10.39;56.28
68634;BME280;55625;47.072;22.192;2022-12-29T10:55:47;100418.22;;;10.42;55.38
68634;BME280;55625;47.072;22.192;2022-12-29T10:58:14;100411.66;;;10.45;55.26
68634;BME280;55625;47.072;22.192;2022-12-29T11:00:40;100410.75;;;10.68;56.65
68634;BME280;55625;47.072;22.192;2022-12-29T11:03:54;100414.56;;;10.81;54.53
68634;BME280;55625;47.072;22.192;2022-12-29T11:06:27;100406.66;;;10.88;54.45
68634;BME280;55625;47.072;22.192;2022-12-29T11:09:11;100405.72;;;10.95;54.66
68634;BME280;55625;47.072;22.192;2022-12-29T11:11:39;100407.16;;;11.03;55.27
68634;BME280;55625;47.072;22.192;2022-12-29T11:14:28;100403.72;;;11.28;56.27
68634;BME280;55625;47.072;22.192;2022-12-29T11:17:01;100402.88;;;11.47;54.90
68634;BME280;55625;47.072;22.192;2022-12-29T11:19:33;100396.13;;;11.58;54.50
68634;BME280;55625;47.072;22.192;2022-12-29T11:22:29;100387.78;;;11.34;54.54
68634;BME280;55625;47.072;22.192;2022-12-29T11:25:09;100396.66;;;11.36;55.70
68634;BME280;55625;47.072;22.192;2022-12-29T11:27:37;100383.84;;;11.12;55.51
68634;BME280;55625;47.072;22.192;2022-12-29T11:30:29;100384.03;;;10.85;56.36
68634;BME280;55625;47.072;22.192;2022-12-29T11:32:57;100378.00;;;10.63;57.50
68634;BME280;55625;47.072;22.192;2022-12-29T11:35:36;100380.94;;;10.79;57.28
68634;BME280;55625;47.072;22.192;2022-12-29T11:38:04;100384.81;;;11.05;56.66
68634;BME280;55625;47.072;22.192;2022-12-29T11:40:31;100378.16;;;11.12;54.96
68634;BME280;55625;47.072;22.192;2022-12-29T11:43:04;100364.56;;;11.19;54.65
68634;BME280;55625;47.072;22.192;2022-12-29T11:45:34;100373.53;;;11.18;56.23
68634;BME280;55625;47.072;22.192;2022-12-29T11:48:14;100375.13;;;11.03;56.81
68634;BME280;55625;47.072;22.192;2022-12-29T11:50:48;100370.53;;;10.73;57.80
68634;BME280;55625;47.072;22.192;2022-12-29T11:53:34;100373.44;;;10.49;57.54
68634;BME280;55625;47.072;22.192;2022-12-29T11:56:08;100366.47;;;10.34;58.31
68634;BME280;55625;47.072;22.192;2022-12-29T11:58:37;100374.81;;;10.21;59.56
68634;BME280;55625;47.072;22.192;2022-12-29T12:06:23;100374.31;;;10.03;59.69
68634;BME280;55625;47.072;22.192;2022-12-29T12:09:14;100359.78;;;10.01;61.01
68634;BME280;55625;47.072;22.192;2022-12-29T12:11:43;100358.91;;;10.04;61.50
68634;BME280;55625;47.072;22.192;2022-12-29T12:14:32;100349.06;;;10.12;60.91
68634;BME280;55625;47.072;22.192;2022-12-29T12:17:18;100347.13;;;10.29;60.62
68634;BME280;55625;47.072;22.192;2022-12-29T12:20:21;100349.94;;;10.49;59.98
68634;BME280;55625;47.072;22.192;2022-12-29T12:26:02;100341.09;;;10.47;58.81
68634;BME280;55625;47.072;22.192;2022-12-29T12:28:55;100333.00;;;10.25;59.47
68634;BME280;55625;47.072;22.192;2022-12-29T12:31:52;100326.81;;;10.11;59.44
68634;BME280;55625;47.072;22.192;2022-12-29T12:34:32;100334.69;;;10.00;61.26
68634;BME280;55625;47.072;22.192;2022-12-29T12:37:06;100328.75;;;9.94;62.34
68634;BME280;55625;47.072;22.192;2022-12-29T12:40:28;100321.09;;;9.91;61.60
68634;BME280;55625;47.072;22.192;2022-12-29T12:49:34;100310.84;;;9.97;61.88
68634;BME280;55625;47.072;22.192;2022-12-29T12:57:13;100305.31;;;10.10;63.64
68634;BME280;55625;47.072;22.192;2022-12-29T13:00:03;100304.53;;;10.09;62.04
68634;BME280;55625;47.072;22.192;2022-12-29T13:05:55;100306.41;;;9.96;63.42
68634;BME280;55625;47.072;22.192;2022-12-29T13:18:37;100304.44;;;9.73;65.36
68634;BME280;55625;47.072;22.192;2022-12-29T13:21:16;100309.00;;;9.67;65.40
68634;BME280;55625;47.072;22.192;2022-12-29T13:26:52;100310.38;;;9.59;66.58
68634;BME280;55625;47.072;22.192;2022-12-29T13:29:59;100307.69;;;9.52;66.95
68634;BME280;55625;47.072;22.192;2022-12-29T13:38:16;100318.75;;;9.43;67.44
68634;BME280;55625;47.072;22.192;2022-12-29T13:40:48;100306.69;;;9.39;67.94
68634;BME280;55625;47.072;22.192;2022-12-29T13:43:16;100299.84;;;9.36;68.42
68634;BME280;55625;47.072;22.192;2022-12-29T13:45:44;100302.38;;;9.30;68.99
68634;BME280;55625;47.072;22.192;2022-12-29T13:48:24;100304.03;;;9.28;68.80
68634;BME280;55625;47.072;22.192;2022-12-29T13:50:58;100307.72;;;9.25;69.13
68634;BME280;55625;47.072;22.192;2022-12-29T13:56:17;100309.06;;;9.17;69.34
68634;BME280;55625;47.072;22.192;2022-12-29T14:02:13;100311.28;;;9.06;69.13
68634;BME280;55625;47.072;22.192;2022-12-29T14:07:59;100314.22;;;8.98;69.14
68634;BME280;55625;47.072;22.192;2022-12-29T14:10:47;100311.09;;;8.93;69.36
68634;BME280;55625;47.072;22.192;2022-12-29T14:13:20;100311.56;;;8.88;69.65
68634;BME280;55625;47.072;22.192;2022-12-29T14:15:55;100305.19;;;8.80;69.83
68634;BME280;55625;47.072;22.192;2022-12-29T14:18:28;100287.91;;;8.75;69.85
68634;BME280;55625;47.072;22.192;2022-12-29T14:28:48;100279.66;;;8.57;71.07
68634;BME280;55625;47.072;22.192;2022-12-29T14:33:40;100286.97;;;8.54;71.14
68634;BME280;55625;47.072;22.192;2022-12-29T14:36:24;100279.78;;;8.50;72.05
68634;BME280;55625;47.072;22.192;2022-12-29T14:38:51;100280.75;;;8.39;72.90
68634;BME280;55625;47.072;22.192;2022-12-29T14:41:37;100287.31;;;8.29;73.03
68634;BME280;55625;47.072;22.192;2022-12-29T14:44:19;100282.53;;;8.23;73.81
68634;BME280;55625;47.072;22.192;2022-12-29T14:49:25;100274.47;;;8.21;72.84
68634;BME280;55625;47.072;22.192;2022-12-29T14:52:07;100265.50;;;8.30;72.17
68634;BME280;55625;47.072;22.192;2022-12-29T14:57:08;100269.44;;;8.39;70.91
68634;BME280;55625;47.072;22.192;2022-12-29T14:59:36;100264.16;;;8.42;71.07